createdAt,value
2022-07-26T00:00:44.338Z,25.30
2022-07-26T00:03:11.233Z,25.30
2022-07-26T00:05:38.961Z,25.30
2022-07-26T00:08:13.393Z,25.30
2022-07-26T00:10:50.419Z,25.30
2022-07-26T00:13:22.275Z,25.20
2022-07-26T00:15:50.261Z,25.30
2022-07-26T00:18:17.787Z,25.20
2022-07-26T00:20:45.218Z,25.20
2022-07-26T00:23:12.054Z,25.20
2022-07-26T00:25:38.859Z,25.20
2022-07-26T00:28:06.101Z,25.20
2022-07-26T00:30:33.642Z,25.20
2022-07-26T00:33:00.534Z,25.20
2022-07-26T00:35:27.456Z,25.20
2022-07-26T00:37:54.271Z,25.20
2022-07-26T00:40:21.275Z,25.10
2022-07-26T00:42:48.082Z,25.10
2022-07-26T00:45:15.766Z,25.20
2022-07-26T00:47:43.049Z,25.20
2022-07-26T00:50:13.383Z,25.20
2022-07-26T00:52:43.450Z,25.20
2022-07-26T00:55:10.764Z,25.20
2022-07-26T00:57:38.790Z,25.20
2022-07-26T01:00:09.986Z,25.20
2022-07-26T01:02:36.944Z,25.20
2022-07-26T01:05:04.615Z,25.20
2022-07-26T01:07:34.835Z,25.20
2022-07-26T01:10:04.345Z,25.20
2022-07-26T01:12:31.221Z,25.20
2022-07-26T01:14:58.060Z,25.20
2022-07-26T01:17:24.836Z,25.10
2022-07-26T01:19:51.791Z,25.10
2022-07-26T01:22:18.593Z,25.10
2022-07-26T01:24:45.566Z,25.00
2022-07-26T01:27:12.451Z,25.00
2022-07-26T01:29:39.517Z,25.00
2022-07-26T01:32:09.370Z,25.00
2022-07-26T01:34:39.048Z,25.00
2022-07-26T01:37:06.071Z,25.00
2022-07-26T01:39:32.949Z,25.00
2022-07-26T01:41:59.799Z,25.00
2022-07-26T01:44:26.704Z,25.00
2022-07-26T01:46:53.584Z,24.90
2022-07-26T01:49:20.428Z,24.90
2022-07-26T01:51:47.271Z,24.90
2022-07-26T01:54:14.166Z,24.90
2022-07-26T01:56:43.261Z,24.90
2022-07-26T01:59:10.143Z,24.90
2022-07-26T02:01:38.191Z,24.90
2022-07-26T02:04:08.330Z,24.90
2022-07-26T02:06:35.538Z,24.80
2022-07-26T02:09:04.277Z,24.70
2022-07-26T02:11:34.298Z,24.80
2022-07-26T02:14:02.337Z,24.70
2022-07-26T02:16:29.241Z,24.70
2022-07-26T02:18:56.116Z,24.60
2022-07-26T02:21:23.046Z,24.60
2022-07-26T02:23:49.912Z,24.60
2022-07-26T02:26:16.837Z,24.60
2022-07-26T02:28:43.653Z,24.60
2022-07-26T02:31:10.555Z,24.60
2022-07-26T02:33:38.752Z,24.60
2022-07-26T02:36:05.745Z,24.50
2022-07-26T02:38:32.690Z,24.60
2022-07-26T02:40:59.507Z,24.60
2022-07-26T02:43:26.887Z,24.50
2022-07-26T02:46:01.592Z,24.60
2022-07-26T02:48:30.652Z,24.50
2022-07-26T02:50:57.616Z,24.50
2022-07-26T02:53:24.505Z,24.50
2022-07-26T02:55:51.624Z,24.50
2022-07-26T02:58:21.304Z,24.60
2022-07-26T03:00:48.266Z,24.60
2022-07-26T03:03:15.248Z,24.60
2022-07-26T03:05:42.390Z,24.50
2022-07-26T03:08:09.500Z,24.50
2022-07-26T03:10:36.373Z,24.40
2022-07-26T03:13:03.228Z,24.40
2022-07-26T03:15:30.153Z,24.40
2022-07-26T03:17:57.098Z,24.40
2022-07-26T03:20:24.052Z,24.30
2022-07-26T03:22:51.029Z,24.30
2022-07-26T03:25:17.885Z,24.20
2022-07-26T03:27:44.637Z,24.20
2022-07-26T03:30:12.415Z,24.20
2022-07-26T03:32:39.610Z,24.20
2022-07-26T03:35:07.569Z,24.10
2022-07-26T03:37:44.749Z,24.10
2022-07-26T03:40:15.789Z,24.10
2022-07-26T03:42:46.076Z,24.00
2022-07-26T03:45:14.874Z,24.00
2022-07-26T03:47:42.737Z,24.00
2022-07-26T03:50:11.269Z,24.00
2022-07-26T03:52:38.365Z,24.00
2022-07-26T03:55:25.872Z,23.90
2022-07-26T03:57:52.954Z,23.90
2022-07-26T04:00:20.366Z,23.90
2022-07-26T04:02:50.263Z,23.80
2022-07-26T04:05:17.543Z,23.80
2022-07-26T04:07:53.724Z,23.80
2022-07-26T04:10:24.849Z,23.70
2022-07-26T04:12:51.795Z,23.70
2022-07-26T04:15:19.949Z,23.70
2022-07-26T04:17:48.385Z,23.70
2022-07-26T04:20:15.929Z,23.70
2022-07-26T04:22:42.874Z,23.70
2022-07-26T04:25:10.451Z,23.70
2022-07-26T04:27:38.605Z,23.70
2022-07-26T04:30:12.404Z,23.70
2022-07-26T04:32:46.928Z,23.70
2022-07-26T04:35:16.958Z,23.70
2022-07-26T04:37:45.138Z,23.70
2022-07-26T04:40:16.860Z,23.80
2022-07-26T04:42:49.184Z,23.80
2022-07-26T04:45:16.713Z,23.80
2022-07-26T04:47:45.204Z,23.90
2022-07-26T04:50:21.037Z,23.90
2022-07-26T04:52:49.039Z,24.00
2022-07-26T04:55:20.251Z,24.00
2022-07-26T04:57:47.889Z,24.00
2022-07-26T05:00:24.598Z,24.10
2022-07-26T05:02:59.961Z,24.10
2022-07-26T05:05:29.319Z,24.20
2022-07-26T05:08:00.789Z,24.20
2022-07-26T05:10:36.719Z,24.30
2022-07-26T05:13:05.744Z,24.30
2022-07-26T05:15:35.160Z,24.20
2022-07-26T05:18:07.068Z,24.30
2022-07-26T05:20:35.552Z,24.30
2022-07-26T05:23:02.623Z,24.30
2022-07-26T05:25:29.521Z,24.30
2022-07-26T05:27:56.396Z,24.20
2022-07-26T05:30:23.354Z,24.30
2022-07-26T05:32:50.126Z,24.30
2022-07-26T05:35:17.874Z,24.20
2022-07-26T05:37:44.823Z,24.30
2022-07-26T05:40:12.430Z,24.30
2022-07-26T05:42:39.243Z,24.30
2022-07-26T05:45:06.899Z,24.20
2022-07-26T05:47:34.305Z,24.20
2022-07-26T05:50:01.205Z,24.20
2022-07-26T05:52:28.075Z,24.20
2022-07-26T05:54:54.818Z,24.10
2022-07-26T05:57:21.576Z,24.10
2022-07-26T05:59:48.333Z,24.10
2022-07-26T06:02:15.262Z,24.10
2022-07-26T06:04:42.155Z,24.10
2022-07-26T06:07:08.936Z,24.00
2022-07-26T06:09:35.910Z,24.00
2022-07-26T06:12:02.661Z,24.00
2022-07-26T06:14:29.665Z,23.80
2022-07-26T06:16:56.864Z,23.90
2022-07-26T06:19:23.941Z,23.80
2022-07-26T06:21:50.723Z,23.80
2022-07-26T06:24:17.882Z,23.80
2022-07-26T06:26:54.757Z,23.80
2022-07-26T06:29:24.016Z,23.70
2022-07-26T06:31:59.072Z,23.70
2022-07-26T06:34:25.872Z,23.70
2022-07-26T06:36:52.775Z,23.80
2022-07-26T06:39:19.664Z,23.80
2022-07-26T06:41:46.708Z,23.70
2022-07-26T06:44:16.782Z,23.80
2022-07-26T06:46:43.682Z,23.70
2022-07-26T06:49:21.921Z,23.60
2022-07-26T06:51:49.440Z,23.60
2022-07-26T06:54:16.340Z,23.50
2022-07-26T06:56:50.912Z,23.40
2022-07-26T06:59:17.781Z,23.40
2022-07-26T07:01:55.402Z,23.30
2022-07-26T07:04:31.329Z,23.20
2022-07-26T07:07:05.855Z,23.30
2022-07-26T07:09:33.932Z,23.40
2022-07-26T07:12:09.981Z,23.30
2022-07-26T07:14:39.439Z,23.30
2022-07-26T07:17:12.115Z,23.30
2022-07-26T07:19:43.241Z,23.30
2022-07-26T07:22:16.258Z,23.30
2022-07-26T07:24:44.586Z,23.30
2022-07-26T07:27:13.643Z,23.40
2022-07-26T07:29:51.869Z,23.40
2022-07-26T07:32:19.962Z,23.50
2022-07-26T07:34:49.100Z,23.60
2022-07-26T07:37:17.539Z,23.60
2022-07-26T07:39:50.198Z,23.70
2022-07-26T07:42:18.943Z,23.70
2022-07-26T07:44:46.044Z,23.70
2022-07-26T07:47:17.135Z,23.60
2022-07-26T07:49:44.297Z,23.60
2022-07-26T07:52:11.217Z,23.60
2022-07-26T07:54:38.374Z,23.60
2022-07-26T07:57:05.187Z,23.50
2022-07-26T07:59:32.142Z,23.50
2022-07-26T08:02:02.076Z,23.40
2022-07-26T08:04:29.500Z,23.50
2022-07-26T08:07:06.531Z,23.50
2022-07-26T08:09:38.032Z,23.50
2022-07-26T08:12:19.547Z,23.50
2022-07-26T08:14:52.357Z,23.60
2022-07-26T08:17:24.652Z,23.70
2022-07-26T08:20:00.043Z,23.70
2022-07-26T08:22:28.395Z,23.80
2022-07-26T08:24:58.233Z,23.90
2022-07-26T08:27:25.104Z,24.00
2022-07-26T08:29:51.874Z,24.10
2022-07-26T08:32:21.612Z,24.20
2022-07-26T08:34:48.533Z,24.20
2022-07-26T08:37:17.498Z,24.20
2022-07-26T08:39:46.662Z,24.20
2022-07-26T08:42:15.850Z,24.30
2022-07-26T08:44:47.352Z,24.40
2022-07-26T08:47:16.023Z,24.40
2022-07-26T08:49:43.705Z,24.50
2022-07-26T08:52:11.807Z,24.50
2022-07-26T08:54:47.832Z,24.60
2022-07-26T08:57:15.394Z,24.50
2022-07-26T08:59:42.363Z,24.40
2022-07-26T09:02:11.966Z,24.10
2022-07-26T09:04:44.223Z,23.90
2022-07-26T09:07:15.602Z,23.70
2022-07-26T09:10:09.444Z,23.70
2022-07-26T09:12:36.985Z,23.70
2022-07-26T09:15:06.001Z,23.90
2022-07-26T09:17:44.726Z,24.20
2022-07-26T09:20:15.406Z,24.70
2022-07-26T09:23:03.225Z,24.90
2022-07-26T09:25:36.528Z,24.90
2022-07-26T09:28:04.747Z,24.90
2022-07-26T09:30:32.666Z,24.80
2022-07-26T09:33:05.546Z,24.70
2022-07-26T09:35:52.352Z,24.60
2022-07-26T09:38:19.534Z,24.40
2022-07-26T09:40:50.819Z,24.40
2022-07-26T09:43:23.782Z,24.30
2022-07-26T09:46:05.403Z,24.10
2022-07-26T09:48:59.477Z,24.10
2022-07-26T09:51:41.927Z,24.20
2022-07-26T09:54:11.009Z,24.30
2022-07-26T09:56:57.432Z,24.30
2022-07-26T09:59:26.192Z,24.10
2022-07-26T10:01:54.899Z,24.10
2022-07-26T10:04:23.134Z,24.20
2022-07-26T10:06:50.465Z,24.30
2022-07-26T10:09:22.954Z,24.30
2022-07-26T10:11:57.921Z,24.30
2022-07-26T10:14:42.379Z,24.20
2022-07-26T10:17:31.324Z,24.10
2022-07-26T10:20:03.637Z,24.10
2022-07-26T10:22:34.075Z,24.00
2022-07-26T10:25:19.686Z,24.10
2022-07-26T10:27:55.321Z,24.20
2022-07-26T10:30:33.599Z,24.40
2022-07-26T10:33:11.924Z,24.40
2022-07-26T10:35:42.103Z,24.50
2022-07-26T10:38:12.942Z,24.60
2022-07-26T10:40:59.486Z,24.70
2022-07-26T10:43:43.150Z,24.90
2022-07-26T10:46:16.178Z,25.10
2022-07-26T10:49:04.195Z,25.40
2022-07-26T10:51:39.215Z,25.60
2022-07-26T10:54:11.933Z,25.80
2022-07-26T10:56:40.042Z,25.90
2022-07-26T10:59:07.348Z,25.90
2022-07-26T11:01:36.207Z,25.80
2022-07-26T11:04:03.345Z,25.70
2022-07-26T11:06:30.456Z,25.40
2022-07-26T11:08:57.325Z,25.20
2022-07-26T11:11:33.041Z,25.00
2022-07-26T11:14:11.968Z,25.00
2022-07-26T11:16:50.523Z,25.20
2022-07-26T11:19:25.721Z,25.50
2022-07-26T11:21:58.912Z,26.00
2022-07-26T11:24:26.808Z,26.20
2022-07-26T11:26:54.157Z,26.10
2022-07-26T11:29:40.677Z,26.10
2022-07-26T11:32:22.109Z,26.30
2022-07-26T11:35:00.068Z,26.10
2022-07-26T11:37:27.356Z,25.60
2022-07-26T11:39:54.306Z,25.30
2022-07-26T11:42:22.146Z,24.90
2022-07-26T11:44:50.391Z,24.70
2022-07-26T11:47:20.160Z,24.60
2022-07-26T11:49:51.887Z,24.60
2022-07-26T11:52:32.196Z,24.90
2022-07-26T11:54:59.383Z,25.20
2022-07-26T11:57:31.238Z,25.50
2022-07-26T11:59:59.036Z,25.60
2022-07-26T12:02:26.516Z,25.60
2022-07-26T12:05:20.730Z,25.40
2022-07-26T12:08:04.322Z,24.90
2022-07-26T12:10:31.377Z,24.60
2022-07-26T12:13:11.710Z,24.50
2022-07-26T12:15:53.529Z,24.40
2022-07-26T12:18:31.254Z,24.50
2022-07-26T12:21:06.640Z,24.40
2022-07-26T12:23:49.287Z,24.60
2022-07-26T12:26:24.607Z,24.80
2022-07-26T12:28:51.671Z,25.10
2022-07-26T12:31:30.570Z,26.00
2022-07-26T12:33:58.425Z,27.10
2022-07-26T12:36:27.471Z,27.40
2022-07-26T12:38:59.426Z,27.20
2022-07-26T12:41:35.971Z,26.70
2022-07-26T12:44:03.996Z,26.40
2022-07-26T12:46:35.250Z,26.20
2022-07-26T12:49:03.046Z,26.20
2022-07-26T12:51:30.032Z,26.00
2022-07-26T12:53:56.954Z,25.70
2022-07-26T12:56:23.729Z,25.50
2022-07-26T12:58:50.639Z,25.30
2022-07-26T13:01:17.605Z,25.40
2022-07-26T13:03:44.548Z,25.80
2022-07-26T13:06:11.482Z,26.50
2022-07-26T13:08:38.750Z,27.20
2022-07-26T13:11:05.622Z,27.50
2022-07-26T13:13:32.470Z,27.80
2022-07-26T13:15:59.403Z,27.80
2022-07-26T13:18:26.188Z,27.40
2022-07-26T13:20:53.020Z,27.00
2022-07-26T13:23:22.065Z,26.80
2022-07-26T13:25:52.294Z,26.60
2022-07-26T13:28:19.796Z,26.50
2022-07-26T13:30:46.656Z,26.70
2022-07-26T13:33:13.433Z,26.70
2022-07-26T13:35:42.388Z,26.60
2022-07-26T13:38:09.988Z,26.60
2022-07-26T13:40:36.882Z,26.50
2022-07-26T13:43:04.759Z,26.30
2022-07-26T13:45:31.632Z,25.90
2022-07-26T13:47:59.651Z,25.70
2022-07-26T13:50:30.045Z,25.50
2022-07-26T13:52:57.145Z,25.30
2022-07-26T13:55:24.649Z,25.30
2022-07-26T13:57:55.823Z,25.20
2022-07-26T14:00:25.636Z,25.30
2022-07-26T14:02:52.641Z,25.50
2022-07-26T14:05:20.529Z,25.60
2022-07-26T14:07:47.472Z,25.70
2022-07-26T14:10:14.330Z,25.80
2022-07-26T14:12:41.236Z,25.80
2022-07-26T14:15:16.801Z,25.70
2022-07-26T14:17:48.298Z,25.50
2022-07-26T14:20:16.882Z,25.40
2022-07-26T14:22:44.393Z,25.40
2022-07-26T14:25:11.347Z,25.60
2022-07-26T14:27:38.218Z,25.60
2022-07-26T14:30:05.655Z,25.80
2022-07-26T14:32:32.491Z,25.90
2022-07-26T14:34:59.281Z,25.90
2022-07-26T14:37:44.053Z,25.90
2022-07-26T14:40:16.724Z,26.00
2022-07-26T14:42:44.685Z,26.50
2022-07-26T14:45:12.268Z,27.00
2022-07-26T14:47:39.428Z,27.20
2022-07-26T14:50:08.219Z,26.90
2022-07-26T14:52:48.466Z,26.50
2022-07-26T14:55:20.357Z,26.20
2022-07-26T14:57:49.886Z,25.90
2022-07-26T15:00:18.067Z,25.80
2022-07-26T15:02:47.172Z,25.70
2022-07-26T15:05:15.559Z,25.80
2022-07-26T15:07:43.204Z,26.20
2022-07-26T15:10:12.880Z,26.60
2022-07-26T15:12:40.556Z,26.70
2022-07-26T15:15:08.838Z,26.70
2022-07-26T15:17:36.624Z,26.50
2022-07-26T15:20:05.163Z,26.30
2022-07-26T15:22:32.092Z,26.10
2022-07-26T15:24:58.877Z,26.00
2022-07-26T15:27:25.755Z,25.90
2022-07-26T15:29:52.573Z,26.00
2022-07-26T15:32:21.354Z,26.20
2022-07-26T15:34:48.523Z,26.20
2022-07-26T15:37:15.411Z,26.20
2022-07-26T15:39:42.238Z,26.10
2022-07-26T15:42:09.320Z,26.20
2022-07-26T15:44:38.654Z,26.20
2022-07-26T15:47:05.646Z,26.20
2022-07-26T15:49:33.426Z,26.10
2022-07-26T15:52:01.090Z,26.10
2022-07-26T15:54:27.936Z,25.90
2022-07-26T15:56:54.857Z,25.60
2022-07-26T15:59:21.649Z,25.40
2022-07-26T16:01:48.712Z,25.10
2022-07-26T16:04:15.807Z,25.00
2022-07-26T16:06:42.990Z,24.80
2022-07-26T16:09:19.030Z,24.70
2022-07-26T16:11:47.087Z,24.60
2022-07-26T16:14:14.683Z,24.50
2022-07-26T16:16:41.582Z,24.50
2022-07-26T16:19:08.743Z,24.60
2022-07-26T16:21:37.066Z,24.70
2022-07-26T16:24:07.042Z,24.70
2022-07-26T16:26:34.935Z,24.80
2022-07-26T16:29:02.280Z,24.80
2022-07-26T16:31:30.286Z,24.80
2022-07-26T16:33:57.311Z,24.70
2022-07-26T16:36:24.186Z,24.70
2022-07-26T16:38:50.998Z,24.70
2022-07-26T16:41:17.829Z,24.60
2022-07-26T16:43:46.113Z,24.50
2022-07-26T16:46:13.114Z,24.30
2022-07-26T16:48:39.990Z,24.30
2022-07-26T16:51:07.083Z,24.20
2022-07-26T16:53:33.977Z,24.10
2022-07-26T16:56:00.937Z,24.00
2022-07-26T16:58:30.896Z,24.00
2022-07-26T17:00:57.795Z,24.00
2022-07-26T17:03:24.737Z,23.90
2022-07-26T17:05:51.736Z,23.80
2022-07-26T17:08:18.878Z,23.80
2022-07-26T17:10:46.233Z,23.80
2022-07-26T17:13:13.083Z,23.70
2022-07-26T17:15:40.011Z,23.70
2022-07-26T17:18:06.957Z,23.60
2022-07-26T17:20:33.912Z,23.60
2022-07-26T17:23:00.908Z,23.60
2022-07-26T17:25:27.921Z,23.60
2022-07-26T17:27:54.802Z,23.60
2022-07-26T17:30:22.120Z,23.60
2022-07-26T17:32:49.125Z,23.60
2022-07-26T17:35:19.650Z,23.50
2022-07-26T17:37:46.714Z,23.50
2022-07-26T17:40:16.378Z,23.60
2022-07-26T17:42:43.853Z,23.60
2022-07-26T17:45:11.289Z,23.70
2022-07-26T17:47:41.005Z,23.60
2022-07-26T17:52:55.834Z,23.60
2022-07-26T17:55:22.900Z,23.70
2022-07-26T17:57:50.464Z,23.60
2022-07-26T18:00:19.598Z,23.50
2022-07-26T18:02:47.331Z,23.50
2022-07-26T18:05:14.855Z,23.50
2022-07-26T18:07:41.858Z,23.50
2022-07-26T18:10:10.110Z,23.50
2022-07-26T18:12:37.088Z,23.40
2022-07-26T18:15:04.479Z,23.30
2022-07-26T18:17:31.267Z,23.30
2022-07-26T18:19:58.055Z,23.20
2022-07-26T18:22:25.357Z,23.20
2022-07-26T18:24:52.189Z,23.20
2022-07-26T18:27:19.568Z,23.20
2022-07-26T18:29:46.579Z,23.20
2022-07-26T18:32:16.973Z,23.20
2022-07-26T18:34:46.079Z,23.10
2022-07-26T18:37:20.437Z,23.10
2022-07-26T18:39:51.562Z,23.10
2022-07-26T18:42:21.365Z,23.10
2022-07-26T18:44:48.215Z,23.10
2022-07-26T18:47:15.060Z,23.10
2022-07-26T18:49:41.838Z,23.10
2022-07-26T18:52:09.780Z,23.00
2022-07-26T18:54:37.494Z,23.00
2022-07-26T18:57:05.165Z,23.00
2022-07-26T18:59:32.898Z,23.00
2022-07-26T19:02:00.586Z,22.90
2022-07-26T19:04:28.343Z,22.90
2022-07-26T19:06:55.690Z,22.90
2022-07-26T19:09:22.569Z,22.80
2022-07-26T19:11:49.390Z,22.80
2022-07-26T19:14:16.204Z,22.80
2022-07-26T19:16:43.039Z,22.70
2022-07-26T19:19:10.301Z,22.70
2022-07-26T19:21:38.022Z,22.60
2022-07-26T19:24:05.272Z,22.60
2022-07-26T19:26:32.111Z,22.60
2022-07-26T19:28:58.959Z,22.50
2022-07-26T19:31:26.682Z,22.50
2022-07-26T19:33:53.550Z,22.50
2022-07-26T19:36:26.167Z,22.50
2022-07-26T19:38:55.622Z,22.50
2022-07-26T19:41:22.699Z,22.50
2022-07-26T19:43:49.462Z,22.50
2022-07-26T19:46:16.350Z,22.40
2022-07-26T19:48:43.219Z,22.40
2022-07-26T19:51:10.050Z,22.40
2022-07-26T19:53:36.934Z,22.30
2022-07-26T19:56:04.387Z,22.30
2022-07-26T19:58:31.262Z,22.20
2022-07-26T20:00:58.399Z,22.20
2022-07-26T20:03:25.399Z,22.20
2022-07-26T20:05:53.546Z,22.20
2022-07-26T20:08:20.593Z,22.20
2022-07-26T20:10:47.390Z,22.10
2022-07-26T20:13:14.142Z,22.10
2022-07-26T20:15:40.916Z,22.00
2022-07-26T20:18:07.765Z,22.00
2022-07-26T20:20:34.560Z,22.00
2022-07-26T20:23:03.448Z,21.90
2022-07-26T20:25:32.065Z,21.90
2022-07-26T20:27:59.295Z,21.90
2022-07-26T20:30:26.277Z,21.90
2022-07-26T20:32:53.019Z,21.90
2022-07-26T20:35:19.973Z,21.90
2022-07-26T20:37:46.845Z,21.90
2022-07-26T20:40:16.417Z,21.90
2022-07-26T20:42:45.026Z,21.90
2022-07-26T20:45:13.658Z,21.90
2022-07-26T20:47:40.811Z,21.90
2022-07-26T20:50:11.425Z,21.90
2022-07-26T20:52:39.125Z,21.90
2022-07-26T20:55:06.545Z,21.80
2022-07-26T20:57:33.349Z,21.80
2022-07-26T21:00:00.383Z,21.80
2022-07-26T21:02:27.559Z,21.70
2022-07-26T21:04:54.585Z,21.70
2022-07-26T21:07:21.405Z,21.60
2022-07-26T21:09:48.127Z,21.60
2022-07-26T21:12:15.073Z,21.50
2022-07-26T21:14:41.877Z,21.50
2022-07-26T21:17:11.956Z,21.50
2022-07-26T21:19:39.322Z,21.60
2022-07-26T21:22:06.658Z,21.50
2022-07-26T21:24:34.968Z,21.50
2022-07-26T21:27:03.092Z,21.50
2022-07-26T21:29:30.075Z,21.50
2022-07-26T21:31:57.140Z,21.50
2022-07-26T21:34:26.672Z,21.50
2022-07-26T21:36:54.083Z,21.40
2022-07-26T21:39:20.892Z,21.40
2022-07-26T21:41:48.888Z,21.40
2022-07-26T21:44:15.755Z,21.30
2022-07-26T21:46:42.633Z,21.30
2022-07-26T21:49:10.079Z,21.30
2022-07-26T21:51:37.140Z,21.30
2022-07-26T21:54:03.913Z,21.30
2022-07-26T21:56:31.501Z,21.20
2022-07-26T21:58:59.985Z,21.20
2022-07-26T22:01:26.992Z,21.20
2022-07-26T22:03:53.825Z,21.20
2022-07-26T22:06:20.631Z,21.10
2022-07-26T22:08:47.401Z,21.10
2022-07-26T22:11:14.277Z,21.10
2022-07-26T22:13:44.958Z,21.10
2022-07-26T22:16:11.835Z,21.00
2022-07-26T22:18:38.781Z,21.00
2022-07-26T22:21:05.736Z,21.00
2022-07-26T22:23:32.762Z,21.00
2022-07-26T22:26:04.026Z,20.90
2022-07-26T22:28:32.559Z,20.90
2022-07-26T22:30:59.657Z,20.90
2022-07-26T22:33:26.778Z,20.80
2022-07-26T22:35:53.620Z,20.80
2022-07-26T22:38:20.879Z,20.80
2022-07-26T22:40:50.706Z,20.80
2022-07-26T22:43:17.709Z,20.80
2022-07-26T22:45:44.675Z,20.80
2022-07-26T22:48:11.782Z,20.70
2022-07-26T22:50:45.215Z,20.70
2022-07-26T22:53:15.154Z,20.70
2022-07-26T22:55:42.217Z,20.70
2022-07-26T22:58:10.882Z,20.60
2022-07-26T23:00:40.462Z,20.60
2022-07-26T23:03:16.889Z,20.60
2022-07-26T23:05:47.659Z,20.60
2022-07-26T23:11:02.687Z,20.50
2022-07-26T23:13:29.574Z,20.50
2022-07-26T23:16:00.293Z,20.40
2022-07-26T23:18:29.270Z,20.40
2022-07-26T23:20:56.199Z,20.40
2022-07-26T23:23:28.522Z,20.40
2022-07-26T23:26:05.770Z,20.40
2022-07-26T23:28:38.457Z,20.30
2022-07-26T23:31:13.607Z,20.30
2022-07-26T23:33:51.384Z,20.30
2022-07-26T23:36:37.514Z,20.20
2022-07-26T23:39:15.339Z,20.20
2022-07-26T23:41:54.955Z,20.20
2022-07-26T23:44:24.749Z,20.20
2022-07-26T23:46:51.781Z,20.10
2022-07-26T23:49:25.089Z,20.10
2022-07-26T23:51:52.287Z,20.10
2022-07-26T23:54:21.080Z,20.10
2022-07-26T23:56:50.870Z,20.00
2022-07-26T23:59:17.964Z,20.00
